ADDS METAR Data INFO
IDs: Format: Raw Decoded Include TAF

Data at: 1149 UTC 25 Jun 2018

KEDC 251135Z AUTO 19007KT 8SM BKN017 BKN023 25/24 A2996 RMK AO2
KEDC 251115Z AUTO 19006KT 10SM SCT017 BKN023 BKN029 25/24 A2995 RMK AO2
KEDC 251055Z AUTO 19006KT 10SM BKN017 BKN022 OVC031 25/24 A2995 RMK AO2
KEDC 251035Z AUTO 19007KT 10SM BKN017 OVC029 25/24 A2995 RMK AO2
KEDC 251015Z AUTO 19005KT 9SM BKN015 BKN020 OVC028 25/24 A2994 RMK AO2
KEDC 250955Z AUTO 19009KT 10SM BKN015 BKN022 OVC028 25/24 A2993 RMK AO2
KEDC 250935Z AUTO 19008G14KT 10SM BKN015 OVC022 25/24 A2993 RMK AO2
KEDC 250915Z AUTO 19008KT 10SM OVC013 25/24 A2992 RMK AO2
KEDC 250855Z AUTO 18009KT 10SM OVC015 25/24 A2992 RMK AO2
KEDC 250835Z AUTO 18008KT 10SM BKN015 OVC020 25/24 A2991 RMK AO2
KEDC 250815Z AUTO 18011G17KT 10SM BKN017 BKN024 25/24 A2991 RMK AO2
KEDC 250755Z AUTO 18010G15KT 10SM SCT016 BKN024 25/24 A2991 RMK AO2
KEDC 250735Z AUTO 18010G16KT 10SM BKN016 OVC024 25/23 A2991 RMK AO2
KEDC 250715Z AUTO 18009G18KT 10SM BKN018 BKN024 25/23 A2992 RMK AO2
KEDC 250655Z AUTO 18011G20KT 10SM SCT020 BKN027 BKN032 25/23 A2992 RMK AO2
KEDC 250635Z AUTO 17010G14KT 10SM SCT018 BKN023 OVC029 25/24 A2993 RMK AO2
KEDC 250615Z AUTO 17009KT 10SM SCT017 BKN023 OVC027 26/24 A2994 RMK AO2
KEDC 250555Z AUTO 16009KT 10SM BKN018 BKN023 OVC028 26/24 A2994 RMK AO2
KEDC 250535Z AUTO 16007KT 10SM BKN020 OVC030 26/24 A2994 RMK AO2
KEDC 250515Z AUTO 16009KT 10SM BKN020 BKN024 26/23 A2994 RMK AO2
KEDC 250455Z AUTO 16007KT 10SM BKN020 BKN038 26/23 A2994 RMK AO2
KEDC 250435Z AUTO 16006KT 10SM SCT022 BKN036 26/23 A2993 RMK AO2
KEDC 250415Z AUTO 16006KT 10SM FEW023 SCT034 27/23 A2992 RMK AO2
KEDC 250355Z AUTO 16007G15KT 10SM SCT027 27/23 A2991 RMK AO2
KEDC 250335Z AUTO 16011G16KT 10SM BKN027 27/23 A2989 RMK AO2
KEDC 250315Z AUTO 16007KT 10SM CLR 28/23 A2989 RMK AO2
KEDC 250255Z AUTO 16010G15KT 10SM CLR 28/23 A2987 RMK AO2
KEDC 250235Z AUTO 15010G16KT 10SM FEW037 28/22 A2988 RMK AO2
KEDC 250215Z AUTO 15012G16KT 10SM CLR 29/22 A2987 RMK AO2
KEDC 250155Z AUTO 16011G20KT 10SM CLR 29/22 A2986 RMK AO2
KEDC 250135Z AUTO 15013G20KT 10SM CLR 30/22 A2986 RMK AO2
KEDC 250115Z AUTO 15017G22KT 10SM CLR 30/22 A2984 RMK AO2
KEDC 250055Z AUTO 15013G20KT 10SM CLR 31/22 A2984 RMK AO2
KEDC 250035Z AUTO 15017G21KT 10SM CLR 32/22 A2984 RMK AO2
KEDC 250015Z AUTO 15013G18KT 10SM CLR 32/23 A2983 RMK AO2
KEDC 242355Z AUTO 15014G19KT 10SM CLR 32/23 A2983 RMK AO2
KEDC 242335Z AUTO 18013G20KT 10SM FEW050 33/22 A2983 RMK AO2
KEDC 242315Z AUTO 15014G21KT 10SM SCT055 33/22 A2983 RMK AO2
KEDC 242255Z AUTO 17015G21KT 10SM FEW055 33/22 A2984 RMK AO2
KEDC 242235Z AUTO 18011G20KT 10SM CLR 34/22 A2984 RMK AO2
KEDC 242215Z AUTO 16013G19KT 10SM FEW055 34/22 A2985 RMK AO2
KEDC 242155Z AUTO 16013G19KT 10SM CLR 34/22 A2984 RMK AO2
KEDC 242135Z AUTO 16011G23KT 140V200 10SM FEW055 34/22 A2985 RMK AO2
KEDC 242115Z AUTO 18009G17KT 10SM FEW055 34/22 A2985 RMK AO2
KEDC 242055Z AUTO 17012G22KT 10SM FEW055 34/22 A2986 RMK AO2
KEDC 242035Z AUTO 18010G18KT 10SM FEW055 34/22 A2987 RMK AO2
KEDC 242015Z AUTO 17012G20KT 140V200 10SM FEW049 34/21 A2987 RMK AO2
KEDC 241955Z AUTO 17014G19KT 10SM SCT049 33/22 A2987 RMK AO2
KEDC 241935Z AUTO 16012G20KT 10SM FEW049 33/22 A2988 RMK AO2
KEDC 241915Z AUTO 16014G20KT 10SM FEW049 34/22 A2988 RMK AO2
KEDC 241855Z AUTO 18012G17KT 150V210 10SM FEW049 33/22 A2988 RMK AO2
KEDC 241835Z AUTO 17012G18KT 10SM FEW049 33/22 A2988 RMK AO2
KEDC 241815Z AUTO 18010G19KT 10SM FEW047 33/22 A2989 RMK AO2
KEDC 241755Z AUTO 17009KT 140V210 10SM FEW045 33/22 A2989 RMK AO2
KEDC 241735Z AUTO 20010G17KT 10SM FEW045 33/22 A2989 RMK AO2
KEDC 241715Z AUTO 17009G16KT 10SM FEW041 32/22 A2989 RMK AO2
KEDC 241655Z AUTO 18013G18KT 10SM FEW039 32/22 A2989 RMK AO2
KEDC 241635Z AUTO 20011G16KT 10SM SCT037 32/22 A2988 RMK AO2
KEDC 241615Z AUTO 21014KT 10SM SCT033 30/22 A2988 RMK AO2
KEDC 241555Z AUTO 20012G19KT 10SM SCT033 30/22 A2988 RMK AO2
KEDC 241535Z AUTO 19012G19KT 160V220 9SM BKN032 30/23 A2988 RMK AO2
KEDC 241515Z AUTO 20012G18KT 10SM BKN028 BKN033 29/23 A2988 RMK AO2
KEDC 241455Z AUTO 19014G21KT 10SM BKN026 29/22 A2987 RMK AO2
KEDC 241435Z AUTO 21013G23KT 10SM SCT024 28/23 A2988 RMK AO2
KEDC 241415Z AUTO 21018G23KT 9SM FEW022 27/23 A2987 RMK AO2
KEDC 241355Z AUTO 19013G24KT 9SM FEW022 27/23 A2986 RMK AO2
KEDC 241335Z AUTO 20014G23KT 9SM FEW020 27/23 A2986 RMK AO2
KEDC 241315Z AUTO 19012G22KT 8SM FEW018 26/23 A2986 RMK AO2
KEDC 241255Z AUTO 19012G18KT 7SM FEW012 25/24 A2985 RMK AO2
KEDC 241235Z AUTO 19009G16KT 6SM BR BKN012 BKN017 25/24 A2984 RMK AO2
KEDC 241215Z AUTO 19010G16KT 5SM BR BKN011 OVC017 25/25 A2984 RMK AO2
KEDC 241155Z AUTO 18011G16KT 5SM BR BKN013 BKN019 25/25 A2983 RMK AO2
KEDC 241135Z AUTO 18009G14KT 5SM BR SCT015 25/24 A2984 RMK AO2
KEDC 241115Z AUTO 18008KT 8SM SCT015 25/24 A2984 RMK AO2
KEDC 241055Z AUTO 19006KT 8SM SCT015 BKN020 BKN029 25/24 A2985 RMK AO2
KEDC 241035Z AUTO 19009KT 8SM SCT017 SCT025 BKN030 25/24 A2985 RMK AO2
KEDC 241015Z AUTO 19010G15KT 8SM FEW017 BKN041 25/24 A2985 RMK AO2
KEDC 240955Z AUTO 19007KT 9SM FEW022 FEW035 SCT041 25/24 A2985 RMK AO2
KEDC 240935Z AUTO 19009KT 8SM SCT033 OVC041 25/24 A2985 RMK AO2
KEDC 240915Z AUTO 18008KT 9SM FEW033 OVC041 25/24 A2986 RMK AO2
KEDC 240855Z AUTO 18006KT 9SM FEW030 FEW035 BKN041 25/24 A2987 RMK AO2
KEDC 240835Z AUTO 18007KT 9SM SCT035 SCT045 25/24 A2988 RMK AO2
KEDC 240815Z AUTO 17007KT 10SM FEW020 SCT037 BKN045 25/24 A2988 RMK AO2
KEDC 240755Z AUTO 18006KT 9SM SCT020 BKN027 OVC039 26/24 A2989 RMK AO2
KEDC 240735Z AUTO 21003KT 10SM -RA FEW019 BKN025 OVC035 26/24 A2992 RMK AO2
KEDC 240715Z AUTO 21005KT 10SM -RA BKN021 BKN028 OVC033 26/24 A2992 RMK AO2
KEDC 240655Z AUTO 20005KT 10SM BKN021 OVC030 26/24 A2993 RMK AO2
KEDC 240635Z AUTO 21006KT 10SM BKN020 OVC026 26/24 A2992 RMK AO2
KEDC 240615Z AUTO 19008KT 10SM OVC022 27/24 A2989 RMK AO2
KEDC 240555Z AUTO 20012G18KT 10SM BKN019 OVC024 27/24 A2987 RMK AO2
KEDC 240535Z AUTO 19009G15KT 150V210 10SM SCT020 OVC026 27/24 A2986 RMK AO2
KEDC 240515Z AUTO 19011G15KT 9SM FEW021 OVC028 27/24 A2987 RMK AO2
KEDC 240455Z AUTO 17012G16KT 9SM SCT022 OVC028 27/24 A2986 RMK AO2
KEDC 240435Z AUTO 17011G17KT 10SM OVC026 27/24 A2984 RMK AO2
KEDC 240415Z AUTO 18011G16KT 10SM OVC022 27/24 A2984 RMK AO2
KEDC 240355Z AUTO 18010G17KT 10SM OVC024 27/24 A2983 RMK AO2
KEDC 240335Z AUTO 18009G16KT 10SM OVC026 27/24 A2981 RMK AO2
KEDC 240315Z AUTO 17011G18KT 10SM OVC028 28/23 A2979 RMK AO2
KEDC 240255Z AUTO 17012G17KT 10SM BKN030 28/23 A2978 RMK AO2
KEDC 240235Z AUTO 17010G15KT 10SM OVC030 28/23 A2978 RMK AO2
KEDC 240215Z AUTO 17010G20KT 10SM OVC030 29/23 A2978 RMK AO2
KEDC 240155Z AUTO 16009G17KT 10SM SCT034 29/23 A2977 RMK AO2
KEDC 240135Z AUTO 16012KT 10SM CLR 30/22 A2977 RMK AO2
KEDC 240115Z AUTO 16013G17KT 10SM CLR 30/22 A2976 RMK AO2
KEDC 240055Z AUTO 15012G21KT 10SM CLR 31/22 A2976 RMK AO2
KEDC 240035Z AUTO 17011G19KT 10SM CLR 32/22 A2976 RMK AO2
KEDC 240015Z AUTO 17009G17KT 10SM CLR 32/22 A2976 RMK AO2
KEDC 232355Z AUTO 16012G20KT 10SM CLR 33/22 A2976 RMK AO2